Weather reports worldwide

Advertisment
Fichtelberg, Germany (10578): temperature & dewpoint: 14.06.2019 06:00:00 - 20.06.2019 06:00:00 (CEST)Fichtelberg, Germany (10578): temperature 5cm & temperature -5cm: 14.06.2019 06:00:00 - 20.06.2019 06:00:00 (CEST)Fichtelberg, Germany (10578): temperature -20cm & temperature -100cm: 14.06.2019 06:00:00 - 20.06.2019 06:00:00 (CEST)Fichtelberg, Germany (10578): wind speed & gusts: 14.06.2019 06:00:00 - 20.06.2019 06:00:00 (CEST)Fichtelberg, Germany (10578): wind direction: 14.06.2019 06:00:00 - 20.06.2019 06:00:00 (CEST)Fichtelberg, Germany (10578): visibility: 14.06.2019 06:00:00 - 20.06.2019 06:00:00 (CEST)Fichtelberg, Germany (10578): sunshine duration: 14.06.2019 06:00:00 - 20.06.2019 06:00:00 (CEST)
Date & Time tt [°C] td [°C] tt 5cm [°C] tt -5cm [°C] tt -20cm [°C] tt -100cm [°C] ff [km/h] ff [kn] fx [km/h] fx [kn] dd vv [km] sd [min]
20.06.2019 06:00:00 14,9 10,1 14,1 14,2 16,6 11,0 - - - - - 42 0
20.06.2019 05:00:00 16,2 9,6 15,0 14,3 16,9 11,0 - - - - - 62 0
20.06.2019 04:00:00 16,3 9,8 15,0 14,5 17,1 11,0 - - - - - 58 0
20.06.2019 03:00:00 16,6 9,8 15,0 14,7 17,4 11,0 - - - - - 58 0
20.06.2019 02:00:00 16,7 8,5 14,9 15,1 17,6 11,0 - - - - - 60 0
20.06.2019 01:00:00 16,9 7,3 15,1 15,7 17,9 11,0 - - - - - 69 0
20.06.2019 00:00:00 16,9 7,2 14,9 16,4 18,1 11,0 - - - - - 75 0
19.06.2019 23:00:00 17,2 8,9 15,3 17,4 18,3 10,9 - - - - - 59 0
19.06.2019 22:00:00 17,1 9,2 15,3 18,6 18,3 10,9 - - - - - 60 0
19.06.2019 21:00:00 17,5 9,8 16,3 20,3 18,2 10,9 - - - - - 61 51
19.06.2019 20:00:00 18,5 11,4 18,5 22,4 18,0 10,9 - - - - - 55 60
19.06.2019 19:00:00 20,3 10,5 23,3 23,1 17,8 10,9 - - - - - 73 58
19.06.2019 18:00:00 19,9 10,4 21,5 23,0 17,7 10,9 - - - - - 63 53
19.06.2019 17:00:00 20,6 8,3 25,4 21,0 17,5 10,9 - - - - - 61 20
19.06.2019 16:00:00 17,2 11,8 16,2 22,0 17,2 10,9 - - - - - 24 0
19.06.2019 15:00:00 19,8 12,3 21,5 23,9 17,0 10,9 - - - - - 54 44
19.06.2019 14:00:00 19,9 12,8 24,4 21,0 16,8 10,9 - - - - - 42 17
19.06.2019 13:00:00 17,4 11,8 17,9 20,7 16,5 10,9 - - - - - 58 0
19.06.2019 12:00:00 19,0 11,0 21,9 21,9 16,2 10,9 - - - - - 41 29
19.06.2019 11:00:00 20,3 11,1 23,6 21,0 16,0 10,9 - - - - - 38 60
19.06.2019 10:00:00 19,6 12,1 21,4 18,5 15,9 10,9 - - - - - 52 40
19.06.2019 09:00:00 18,8 11,5 20,6 16,8 15,9 10,8 - - - - - 63 38
19.06.2019 08:00:00 17,3 10,4 16,6 15,4 16,1 10,8 - - - - - 75 47
19.06.2019 07:00:00 17,2 10,1 16,7 14,0 16,3 10,8 - - - - - 54 37
19.06.2019 06:00:00 16,0 9,6 13,8 13,8 16,5 10,8 - - - - - 54 0
19.06.2019 05:00:00 15,3 10,2 13,2 14,0 16,8 10,8 - - - - - 47 0
19.06.2019 04:00:00 14,9 10,1 13,0 14,3 17,0 10,8 - - - - - 50 0
19.06.2019 03:00:00 14,4 10,8 12,5 14,6 17,3 10,8 - - - - - 45 0
19.06.2019 02:00:00 14,3 10,7 12,5 15,0 17,6 10,8 - - - - - 49 0
19.06.2019 01:00:00 14,5 10,4 12,8 15,6 17,8 10,8 - - - - - 47 0
19.06.2019 00:00:00 14,9 10,4 13,4 16,2 18,1 10,8 - - - - - 50 0
18.06.2019 23:00:00 15,0 10,2 13,5 17,1 18,3 10,8 - - - - - 47 0
18.06.2019 22:00:00 15,1 9,5 13,5 18,4 18,4 10,8 - - - - - 57 0
18.06.2019 21:00:00 15,8 9,7 14,5 20,3 18,4 10,8 - - - - - 61 35
18.06.2019 20:00:00 17,1 9,6 17,4 22,7 18,2 10,8 - - - - - 57 60
18.06.2019 19:00:00 18,4 9,9 22,1 24,1 17,9 10,8 - - - - - 63 60
18.06.2019 18:00:00 18,9 10,6 25,0 24,1 17,6 10,8 - - - - - 50 35
18.06.2019 17:00:00 18,6 9,8 22,1 24,4 17,2 10,8 - - - - - 55 28
18.06.2019 16:00:00 19,3 10,4 25,6 24,1 16,8 10,8 - - - - - 32 36
18.06.2019 15:00:00 18,2 10,6 23,4 22,9 16,4 10,8 - - - - - 42 9
18.06.2019 14:00:00 17,5 11,0 20,9 24,4 15,9 10,7 - - - - - 46 36
18.06.2019 13:00:00 17,9 10,9 24,2 23,0 15,5 10,7 - - - - - 51 58
18.06.2019 12:00:00 16,9 9,1 21,1 20,8 15,3 10,7 - - - - - 53 59
18.06.2019 11:00:00 16,8 9,8 20,4 19,0 15,1 10,7 - - - - - 51 60
18.06.2019 10:00:00 15,7 9,5 17,6 16,8 15,1 10,7 - - - - - 45 60
18.06.2019 09:00:00 15,2 9,5 16,3 14,9 15,2 10,7 - - - - - 49 60
18.06.2019 08:00:00 13,7 9,2 13,9 13,4 15,4 10,7 - - - - - 56 60
18.06.2019 07:00:00 13,0 8,9 12,1 12,4 15,6 10,7 - - - - - 44 60
18.06.2019 06:00:00 11,8 9,5 10,4 12,3 15,9 10,7 - - - - - 31 16
18.06.2019 05:00:00 11,6 9,0 10,2 12,5 16,2 10,7 - - - - - 48 0
18.06.2019 04:00:00 11,4 8,3 9,9 12,9 16,5 10,7 - - - - - 44 0
18.06.2019 03:00:00 11,3 8,7 10,0 13,4 16,8 10,7 - - - - - 37 0
18.06.2019 02:00:00 11,6 9,1 10,3 14,0 17,1 10,7 - - - - - 37 0
18.06.2019 01:00:00 12,4 9,5 11,1 14,6 17,4 10,7 - - - - - 41 0
18.06.2019 00:00:00 12,6 9,4 11,4 15,4 17,7 10,7 - - - - - 52 0
17.06.2019 23:00:00 12,9 9,4 11,5 16,3 18,0 10,7 - - - - - 51 0
17.06.2019 22:00:00 13,4 9,3 12,0 17,7 18,1 10,7 - - - - - 47 6
17.06.2019 21:00:00 14,4 8,6 13,2 19,6 18,1 10,7 - - - - - 53 60
17.06.2019 20:00:00 15,8 8,5 16,1 22,1 17,9 10,7 - - - - - 69 60
17.06.2019 19:00:00 16,7 8,3 20,5 23,8 17,7 10,7 - - - - - 69 60
17.06.2019 18:00:00 17,5 8,6 22,9 25,0 17,3 10,7 - - - - - 69 60
17.06.2019 17:00:00 17,9 7,2 24,1 25,3 16,8 10,7 - - - - - 54 58
17.06.2019 16:00:00 17,5 8,2 22,9 25,4 16,3 10,7 - - 29 16 - 69 55
17.06.2019 15:00:00 17,6 6,5 23,2 25,1 15,8 10,6 5 3 29 16 E 75 60
17.06.2019 14:00:00 17,4 8,7 22,7 24,2 15,3 10,6 7 4 28 15 E 28 57
17.06.2019 13:00:00 16,8 7,8 22,1 22,8 14,8 10,6 7 4 26 14 ESE 50 60
17.06.2019 12:00:00 16,1 6,7 20,5 21,1 14,5 10,6 - - - - - 56 59
17.06.2019 11:00:00 15,5 7,4 18,9 19,0 14,2 10,6 - - - - - 75 60
17.06.2019 10:00:00 14,2 7,8 16,5 16,7 14,1 10,6 - - - - - 59 60
17.06.2019 09:00:00 13,8 7,8 15,4 14,6 14,2 10,6 - - - - - 75 58
17.06.2019 08:00:00 12,2 6,9 13,5 12,3 14,4 10,6 0 0 0 0 N 62 13
17.06.2019 07:00:00 11,9 4,9 11,2 11,2 14,6 10,6 0 0 0 0 N 51 60
17.06.2019 06:00:00 10,2 3,6 9,2 11,3 14,8 10,6 0 0 0 0 N 75 1
17.06.2019 05:00:00 9,9 3,5 9,1 11,3 15,0 10,6 0 0 15 8 N 75 0
17.06.2019 04:00:00 10,4 2,9 6,7 11,9 15,3 10,6 0 0 0 0 N 75 0
17.06.2019 03:00:00 10,5 3,2 9,1 12,6 15,5 10,6 0 0 1 1 N 75 0
17.06.2019 02:00:00 10,3 6,8 9,6 13,1 15,7 10,6 0 0 12 7 N 56 0
17.06.2019 01:00:00 10,4 7,7 9,7 13,5 15,9 10,6 0 0 0 0 N 42 0
17.06.2019 00:00:00 10,4 9,3 10,1 13,9 16,1 10,5 0 0 0 0 N 13 0
16.06.2019 23:00:00 10,4 8,5 10,0 14,4 16,3 10,5 0 0 0 0 N 29 0
16.06.2019 22:00:00 10,6 9,0 10,5 15,0 16,5 10,5 0 0 0 0 N 21 0
16.06.2019 21:00:00 11,0 8,9 11,1 15,7 16,6 10,5 0 0 10 6 N 32 0
16.06.2019 20:00:00 11,4 9,3 11,6 16,6 16,6 10,5 0 0 14 7 N 40 0
16.06.2019 19:00:00 11,7 9,4 11,8 17,6 16,6 10,5 0 0 8 4 N 34 0
16.06.2019 18:00:00 12,8 7,7 13,5 18,9 16,5 10,5 0 0 17 9 N 73 0
16.06.2019 17:00:00 12,9 7,7 14,2 19,4 16,3 10,5 0 0 11 6 N 55 0
16.06.2019 16:00:00 13,2 8,9 15,2 20,6 16,1 10,5 0 0 11 6 N 66 8
16.06.2019 15:00:00 13,3 9,0 17,4 20,0 15,8 10,5 0 0 0 0 N 46 6
16.06.2019 14:00:00 12,4 9,0 14,6 19,3 15,6 10,4 0 0 0 0 N 52 0
16.06.2019 13:00:00 11,8 7,9 14,1 18,6 15,5 10,4 0 0 0 0 N 55 6
16.06.2019 12:00:00 11,3 8,9 13,8 16,9 15,6 10,4 0 0 24 13 N 44 17
16.06.2019 11:00:00 10,3 8,5 12,7 13,8 15,8 10,4 14 8 31 17 N 35 4
16.06.2019 10:00:00 8,4 6,4 8,4 12,8 16,0 10,4 23 13 34 19 N 28 0
16.06.2019 09:00:00 8,4 6,9 8,1 13,0 16,3 10,4 28 15 32 18 NNW 8 0
16.06.2019 08:00:00 9,5 9,1 9,9 13,5 16,5 10,4 4 2 26 14 NW 0,7 0
16.06.2019 07:00:00 9,6 9,2 9,9 13,8 16,8 10,4 18 10 35 19 NNW 0,1 0
16.06.2019 06:00:00 9,9 9,5 10,2 14,2 17,0 10,4 22 12 34 18 N 0,1 0
16.06.2019 05:00:00 10,1 9,6 10,2 14,6 17,3 10,4 26 14 39 21 NW 0,2 0
16.06.2019 04:00:00 10,6 10,1 10,8 15,1 17,6 10,4 24 13 37 20 NNW 0,5 0
16.06.2019 03:00:00 11,0 10,4 11,2 15,6 17,9 10,4 24 13 39 21 NNW 1,2 0
16.06.2019 02:00:00 12,0 11,4 12,2 16,0 18,1 10,4 22 12 34 18 N 0,6 0
16.06.2019 01:00:00 12,3 10,5 12,2 16,5 18,4 10,4 27 15 39 21 NNW 33 0
16.06.2019 00:00:00 13,3 10,3 13,1 17,3 18,7 10,3 26 14 39 21 NW 59 0
15.06.2019 23:00:00 13,7 10,5 13,2 18,1 18,9 10,3 31 17 40 22 NW 67 0
15.06.2019 22:00:00 14,4 10,1 13,5 19,4 19,1 10,3 24 13 34 18 WNW 65 0
15.06.2019 21:00:00 15,7 10,6 15,1 21,3 19,0 10,3 0 0 30 16 N 56 40
15.06.2019 20:00:00 17,8 10,5 17,9 23,5 18,9 10,3 17 9 34 18 W 75 60
15.06.2019 19:00:00 19,6 10,7 21,2 25,2 18,6 10,3 22 12 37 20 W 75 60
15.06.2019 18:00:00 21,0 11,2 24,4 26,2 18,2 10,3 19 10 36 19 W 58 60
15.06.2019 17:00:00 21,3 10,3 24,7 26,7 17,7 10,3 11 6 38 20 W 59 58
15.06.2019 16:00:00 21,9 11,1 26,3 26,4 17,3 10,3 27 14 42 23 W 64 29
15.06.2019 15:00:00 22,3 10,0 25,4 26,1 16,8 10,3 27 14 51 28 W 52 56
15.06.2019 14:00:00 23,2 11,6 27,7 23,7 16,4 10,3 9 5 40 21 WSW 38 20
15.06.2019 13:00:00 23,1 12,7 26,8 23,6 16,1 10,3 29 15 45 25 SW 55 60
15.06.2019 12:00:00 21,9 12,5 24,7 21,3 15,9 10,3 30 16 42 23 SW 42 57
15.06.2019 11:00:00 19,4 13,3 19,8 19,4 15,8 10,3 16 9 40 22 SW 31 17
15.06.2019 10:00:00 20,1 13,7 22,0 18,5 15,7 10,3 25 13 40 21 SSW 48 22
15.06.2019 09:00:00 19,3 13,0 19,5 17,7 15,7 10,3 22 12 35 19 S 32 35
15.06.2019 08:00:00 18,2 13,0 18,2 16,6 15,7 10,3 30 16 37 20 S 42 23
15.06.2019 07:00:00 17,1 13,5 16,9 15,9 15,8 10,3 21 11 31 17 SSE 32 0
15.06.2019 06:00:00 15,3 14,9 15,1 15,9 15,9 10,3 18 10 28 15 SE 0,6 0
15.06.2019 05:00:00 15,7 15,3 15,8 15,9 16,0 10,3 23 12 42 23 ESE - 0
15.06.2019 04:00:00 15,8 15,4 15,9 15,8 16,1 10,2 33 18 44 24 ESE - 0
15.06.2019 03:00:00 15,8 15,2 15,7 15,8 16,2 10,2 31 17 52 28 ESE 1,9 0
15.06.2019 02:00:00 16,2 15,1 15,8 15,8 16,4 10,2 39 21 - - ESE 8 0
15.06.2019 01:00:00 16,5 14,3 15,7 15,7 16,6 10,2 - - - - - 22 0
15.06.2019 00:00:00 17,1 13,0 16,0 15,9 16,7 10,2 - - - - - 35 0
14.06.2019 23:00:00 17,5 11,9 16,2 16,3 16,9 10,2 - - - - - 43 0
14.06.2019 22:00:00 17,8 10,7 16,7 17,0 17,0 10,2 - - - - - 49 0
14.06.2019 21:00:00 18,0 9,9 16,9 18,0 17,1 10,2 - - - - - 65 0
14.06.2019 20:00:00 18,6 9,7 17,9 19,4 17,0 10,2 - - - - - 46 0
14.06.2019 19:00:00 19,6 10,6 19,4 21,0 16,8 10,2 - - - - - 52 0
14.06.2019 18:00:00 20,7 9,2 22,1 22,8 16,5 10,2 - - - - - 59 54
14.06.2019 17:00:00 20,9 9,0 22,9 22,8 16,2 10,2 - - - - - 74 47
14.06.2019 16:00:00 21,3 9,1 25,8 23,3 15,8 10,2 - - - - - 66 60
14.06.2019 15:00:00 20,5 8,9 24,2 23,0 15,4 10,2 - - - - - 63 60
14.06.2019 14:00:00 19,6 10,3 23,2 22,3 15,0 10,2 - - - - - 58 60
14.06.2019 13:00:00 19,5 11,4 23,4 21,1 14,6 10,2 - - - - - 54 60
14.06.2019 12:00:00 18,4 8,4 21,3 19,6 14,3 10,2 - - - - - 75 60
14.06.2019 11:00:00 17,6 9,5 19,9 17,9 14,2 10,2 - - - - - 71 60
14.06.2019 10:00:00 17,0 7,5 18,2 16,2 14,1 10,1 - - - - - 75 60
14.06.2019 09:00:00 16,3 7,5 16,8 14,3 14,2 10,1 - - - - - 72 60
14.06.2019 08:00:00 15,6 10,8 15,1 12,3 14,4 10,1 - - - - - 56 60
14.06.2019 07:00:00 14,6 10,2 12,3 10,9 14,7 10,1 - - - - - 47 60
14.06.2019 06:00:00 13,2 6,0 7,2 10,8 14,9 10,1 - - - - - 75 20

tt = temperature
td = dewpoint
tt 5cm = temperature 5cm
tt -5cm = temperature -5cm
tt -20cm = temperature -20cm
tt -100cm = temperature -100cm
ff = wind speed
fx = gusts
dd = wind direction
vv = visibility
sd = sunshine duration

Next stations